createdAt,value
2017-10-09T00:01:56.894Z,6.27
2017-10-09T00:04:26.068Z,6.30
2017-10-09T00:06:55.233Z,6.90
2017-10-09T00:09:24.334Z,6.83
2017-10-09T00:11:53.497Z,6.60
2017-10-09T00:14:23.481Z,6.60
2017-10-09T00:16:59.317Z,6.93
2017-10-09T00:19:36.793Z,6.90
2017-10-09T00:22:05.964Z,6.27
2017-10-09T00:24:35.279Z,6.53
2017-10-09T00:27:04.457Z,7.10
2017-10-09T00:29:33.640Z,6.40
2017-10-09T00:32:16.221Z,6.13
2017-10-09T00:34:50.648Z,7.50
2017-10-09T00:37:19.844Z,7.23
2017-10-09T00:39:56.262Z,8.30
2017-10-09T00:42:25.424Z,6.57
2017-10-09T00:44:54.557Z,6.20
2017-10-09T00:47:23.782Z,6.60
2017-10-09T00:49:53.157Z,6.10
2017-10-09T00:52:23.448Z,6.10
2017-10-09T00:54:52.549Z,6.70
2017-10-09T00:57:21.787Z,6.30
2017-10-09T00:59:50.914Z,6.70
2017-10-09T01:02:20.138Z,7.10
2017-10-09T01:04:49.359Z,6.97
2017-10-09T01:07:18.502Z,7.10
2017-10-09T01:09:47.752Z,6.70
2017-10-09T01:12:18.725Z,7.77
2017-10-09T01:14:47.842Z,7.33
2017-10-09T01:17:16.978Z,7.23
2017-10-09T01:19:49.533Z,6.87
2017-10-09T01:22:18.714Z,8.90
2017-10-09T01:24:47.886Z,7.50
2017-10-09T01:27:24.873Z,6.80
2017-10-09T01:29:53.981Z,8.37
2017-10-09T01:32:23.192Z,8.10
2017-10-09T01:34:58.549Z,7.43
2017-10-09T01:37:33.705Z,7.40
2017-10-09T01:40:02.882Z,7.87
2017-10-09T01:42:39.446Z,7.30
2017-10-09T01:45:08.773Z,6.67
2017-10-09T01:47:37.906Z,6.73
2017-10-09T01:50:07.290Z,6.83
2017-10-09T01:52:36.817Z,7.60
2017-10-09T01:55:06.007Z,7.37
2017-10-09T01:57:35.265Z,8.63
2017-10-09T02:00:17.349Z,7.50
2017-10-09T02:02:46.611Z,6.83
2017-10-09T02:05:15.748Z,6.70
2017-10-09T02:07:44.886Z,7.10
2017-10-09T02:10:14.024Z,6.43
2017-10-09T02:12:43.337Z,7.73
2017-10-09T02:15:12.422Z,7.67
2017-10-09T02:17:42.900Z,8.40
2017-10-09T02:20:12.022Z,7.70
2017-10-09T02:22:41.138Z,8.83
2017-10-09T02:25:10.542Z,7.80
2017-10-09T02:27:40.033Z,8.90
2017-10-09T02:30:09.432Z,8.03
2017-10-09T02:32:38.543Z,7.57
2017-10-09T02:35:07.666Z,7.70
2017-10-09T02:37:36.790Z,8.30
2017-10-09T02:40:05.917Z,8.70
2017-10-09T02:42:35.693Z,7.97
2017-10-09T02:45:04.823Z,7.97
2017-10-09T02:47:33.970Z,6.97
2017-10-09T02:50:03.078Z,7.97
2017-10-09T02:52:32.465Z,8.13
2017-10-09T02:55:07.812Z,8.90
2017-10-09T02:57:36.948Z,8.37
2017-10-09T03:00:06.101Z,9.20
2017-10-09T03:02:35.603Z,9.40
2017-10-09T03:05:04.687Z,9.90
2017-10-09T03:07:33.912Z,9.33
2017-10-09T03:10:10.422Z,9.50
2017-10-09T03:12:54.189Z,8.33
2017-10-09T03:15:23.325Z,8.97
2017-10-09T03:17:52.458Z,9.40
2017-10-09T03:20:21.609Z,10.23
2017-10-09T03:23:11.838Z,8.70
2017-10-09T03:25:56.918Z,9.90
2017-10-09T03:28:36.744Z,9.53
2017-10-09T03:31:05.940Z,11.27
2017-10-09T03:33:35.428Z,9.97
2017-10-09T03:36:11.222Z,9.47
2017-10-09T03:38:41.678Z,9.53
2017-10-09T03:41:10.863Z,10.37
2017-10-09T03:43:40.079Z,9.80
2017-10-09T03:46:09.290Z,11.73
2017-10-09T03:48:38.431Z,15.30
2017-10-09T03:51:13.682Z,10.70
2017-10-09T03:53:55.164Z,10.30
2017-10-09T03:56:24.907Z,9.83
2017-10-09T03:58:54.034Z,10.07
2017-10-09T04:01:23.199Z,9.47
2017-10-09T04:03:52.290Z,9.57
2017-10-09T04:06:21.392Z,9.53
2017-10-09T04:08:56.863Z,7.60
2017-10-09T04:11:25.994Z,8.67
2017-10-09T04:13:55.133Z,9.03
2017-10-09T04:16:24.396Z,10.17
2017-10-09T04:18:53.548Z,9.30
2017-10-09T04:21:37.193Z,9.63
2017-10-09T04:24:06.381Z,7.20
2017-10-09T04:26:35.620Z,9.30
2017-10-09T04:29:13.373Z,9.13
2017-10-09T04:31:42.570Z,8.60
2017-10-09T04:34:11.770Z,8.70
2017-10-09T04:36:40.952Z,9.17
2017-10-09T04:39:10.082Z,8.80
2017-10-09T04:41:52.614Z,8.70
2017-10-09T04:44:21.744Z,9.47
2017-10-09T04:46:50.886Z,9.30
2017-10-09T04:49:20.113Z,9.43
2017-10-09T04:51:50.009Z,10.50
2017-10-09T04:54:19.277Z,11.97
2017-10-09T04:56:48.615Z,10.17
2017-10-09T04:59:17.765Z,10.10
2017-10-09T05:01:46.881Z,12.00
2017-10-09T05:04:16.057Z,11.93
2017-10-09T05:06:45.173Z,11.17
2017-10-09T05:09:14.316Z,12.10
2017-10-09T05:11:43.430Z,10.37
2017-10-09T05:14:13.452Z,9.70
2017-10-09T05:16:42.601Z,8.93
2017-10-09T05:19:11.802Z,9.27
2017-10-09T05:21:44.145Z,8.57
2017-10-09T05:24:13.300Z,8.50
2017-10-09T05:26:42.512Z,8.80
2017-10-09T05:29:11.693Z,9.00
2017-10-09T05:31:40.849Z,11.80
2017-10-09T05:34:09.957Z,10.53
2017-10-09T05:36:39.094Z,10.60
2017-10-09T05:39:08.739Z,15.70
2017-10-09T05:41:37.840Z,16.60
2017-10-09T05:44:06.971Z,17.40
2017-10-09T05:46:36.122Z,14.33
2017-10-09T05:49:05.227Z,13.80
2017-10-09T05:51:34.367Z,12.80
2017-10-09T05:54:14.218Z,10.53
2017-10-09T05:56:43.519Z,11.27
2017-10-09T05:59:12.776Z,10.10
2017-10-09T06:01:42.117Z,11.47
2017-10-09T06:04:11.249Z,9.20
2017-10-09T06:06:40.461Z,10.07
2017-10-09T06:09:09.830Z,8.97
2017-10-09T06:11:39.225Z,9.93
2017-10-09T06:14:08.333Z,9.50
2017-10-09T06:16:46.003Z,10.23
2017-10-09T06:19:15.814Z,10.50
2017-10-09T06:21:45.395Z,9.47
2017-10-09T06:24:14.508Z,9.13
2017-10-09T06:26:43.653Z,8.47
2017-10-09T06:29:12.744Z,8.43
2017-10-09T06:31:41.900Z,8.40
2017-10-09T06:34:11.097Z,8.63
2017-10-09T06:36:40.289Z,10.00
2017-10-09T06:39:09.493Z,9.33
2017-10-09T06:41:38.581Z,11.33
2017-10-09T06:44:07.801Z,11.90
2017-10-09T06:46:36.922Z,12.70
2017-10-09T06:49:06.261Z,12.43
2017-10-09T06:51:35.408Z,10.60
2017-10-09T06:54:04.605Z,10.23
2017-10-09T06:56:33.892Z,14.97
2017-10-09T06:59:03.224Z,9.17
2017-10-09T07:01:34.564Z,9.70
2017-10-09T07:04:04.152Z,12.23
2017-10-09T07:06:33.290Z,7.80
2017-10-09T07:09:02.685Z,7.00
2017-10-09T07:11:46.901Z,7.70
2017-10-09T07:14:16.141Z,8.40
2017-10-09T07:16:45.269Z,7.70
2017-10-09T07:19:14.827Z,9.70
2017-10-09T07:21:46.115Z,7.00
2017-10-09T07:24:15.322Z,7.53
2017-10-09T07:26:44.645Z,8.50
2017-10-09T07:29:13.745Z,7.43
2017-10-09T07:31:51.805Z,8.37
2017-10-09T07:34:20.885Z,9.07
2017-10-09T07:36:49.992Z,7.40
2017-10-09T07:39:19.257Z,9.43
2017-10-09T07:41:49.779Z,8.23
2017-10-09T07:44:26.615Z,7.63
2017-10-09T07:46:55.834Z,8.97
2017-10-09T07:49:24.971Z,8.10
2017-10-09T07:51:54.110Z,6.50
2017-10-09T07:54:24.123Z,6.90
2017-10-09T07:56:53.405Z,6.70
2017-10-09T07:59:22.876Z,7.37
2017-10-09T08:01:52.311Z,8.20
2017-10-09T08:04:21.385Z,6.70
2017-10-09T08:06:50.523Z,6.67
2017-10-09T08:09:19.620Z,5.80
2017-10-09T08:12:02.912Z,11.47
2017-10-09T08:14:32.591Z,10.27
2017-10-09T08:17:01.739Z,10.30
2017-10-09T08:19:34.674Z,9.40
2017-10-09T08:22:03.836Z,9.10
2017-10-09T08:24:33.011Z,7.93
2017-10-09T08:27:02.314Z,7.33
2017-10-09T08:29:31.675Z,6.23
2017-10-09T08:32:00.830Z,7.90
2017-10-09T08:34:30.279Z,6.80
2017-10-09T08:36:59.899Z,5.63
2017-10-09T08:39:29.050Z,5.77
2017-10-09T08:41:58.189Z,6.03
2017-10-09T08:44:35.503Z,5.63
2017-10-09T08:47:05.518Z,6.30
2017-10-09T08:49:34.824Z,5.23
2017-10-09T08:52:03.973Z,5.30
2017-10-09T08:54:33.217Z,7.00
2017-10-09T08:57:02.631Z,5.40
2017-10-09T08:59:32.831Z,6.17
2017-10-09T09:02:02.008Z,5.90
2017-10-09T09:04:31.097Z,5.77
2017-10-09T09:07:01.379Z,5.83
2017-10-09T09:09:30.525Z,5.40
2017-10-09T09:12:03.000Z,5.13
2017-10-09T09:14:32.127Z,6.50
2017-10-09T09:17:01.512Z,5.57
2017-10-09T09:19:39.531Z,6.67
2017-10-09T09:22:08.649Z,6.33
2017-10-09T09:24:51.412Z,6.30
2017-10-09T09:27:20.739Z,5.97
2017-10-09T09:29:49.831Z,6.07
2017-10-09T09:32:18.976Z,6.80
2017-10-09T09:34:48.111Z,7.13
2017-10-09T09:37:28.506Z,5.50
2017-10-09T09:39:57.820Z,5.30
2017-10-09T09:42:26.958Z,6.03
2017-10-09T09:44:56.068Z,4.73
2017-10-09T09:47:25.285Z,5.47
2017-10-09T09:49:54.393Z,5.40
2017-10-09T09:52:23.718Z,5.97
2017-10-09T09:54:52.862Z,4.80
2017-10-09T09:57:22.007Z,5.40
2017-10-09T09:59:51.854Z,4.47
2017-10-09T10:02:20.950Z,5.30
2017-10-09T10:04:50.235Z,6.63
2017-10-09T10:07:19.361Z,6.67
2017-10-09T10:09:49.137Z,5.50
2017-10-09T10:12:18.269Z,5.60
2017-10-09T10:14:47.410Z,5.17
2017-10-09T10:17:16.525Z,5.87
2017-10-09T10:19:45.674Z,5.97
2017-10-09T10:22:14.812Z,4.90
2017-10-09T10:24:56.189Z,5.53
2017-10-09T10:27:31.800Z,4.60
2017-10-09T10:30:00.916Z,6.10
2017-10-09T10:32:30.177Z,5.20
2017-10-09T10:34:59.341Z,5.57
2017-10-09T10:37:28.441Z,6.03
2017-10-09T10:39:57.557Z,5.50
2017-10-09T10:42:27.616Z,4.77
2017-10-09T10:44:56.882Z,5.57
2017-10-09T10:47:25.972Z,5.87
2017-10-09T10:50:09.009Z,5.30
2017-10-09T10:52:38.293Z,4.40
2017-10-09T10:55:20.687Z,5.87
2017-10-09T10:57:49.795Z,5.60
2017-10-09T11:00:19.126Z,6.13
2017-10-09T11:02:48.456Z,6.10
2017-10-09T11:05:17.562Z,6.67
2017-10-09T11:07:46.658Z,6.43
2017-10-09T11:10:15.793Z,7.00
2017-10-09T11:12:58.383Z,7.83
2017-10-09T11:15:31.157Z,7.00
2017-10-09T11:18:00.301Z,8.10
2017-10-09T11:20:29.439Z,7.63
2017-10-09T11:23:11.269Z,8.90
2017-10-09T11:25:40.390Z,6.80
2017-10-09T11:28:09.509Z,6.60
2017-10-09T11:30:38.981Z,5.67
2017-10-09T11:33:08.333Z,4.67
2017-10-09T11:35:43.458Z,5.00
2017-10-09T11:38:13.038Z,4.93
2017-10-09T11:40:43.635Z,4.10
2017-10-09T11:43:12.772Z,4.93
2017-10-09T11:45:42.108Z,4.90
2017-10-09T11:48:11.270Z,5.07
2017-10-09T11:50:40.412Z,5.07
2017-10-09T11:53:09.694Z,5.07
2017-10-09T11:55:39.045Z,4.90
2017-10-09T11:58:08.284Z,4.50
2017-10-09T12:00:37.641Z,4.47
2017-10-09T12:03:13.837Z,4.50
2017-10-09T12:05:43.321Z,4.07
2017-10-09T12:08:14.111Z,2.80
2017-10-09T12:10:43.228Z,3.20
2017-10-09T12:13:18.439Z,2.53
2017-10-09T12:15:47.654Z,2.97
2017-10-09T12:18:16.858Z,3.10
2017-10-09T12:20:46.211Z,3.03
2017-10-09T12:23:15.378Z,2.60
2017-10-09T12:25:44.536Z,3.10
2017-10-09T12:28:13.698Z,2.80
2017-10-09T12:30:42.829Z,3.50
2017-10-09T12:33:12.076Z,3.20
2017-10-09T12:35:41.340Z,2.70
2017-10-09T12:38:10.482Z,3.33
2017-10-09T12:40:39.592Z,3.13
2017-10-09T12:43:16.460Z,3.40
2017-10-09T12:45:45.595Z,3.40
2017-10-09T12:48:14.740Z,4.10
2017-10-09T12:50:43.897Z,2.70
2017-10-09T12:53:13.579Z,2.87
2017-10-09T12:55:42.670Z,2.93
2017-10-09T12:58:15.646Z,3.27
2017-10-09T13:00:44.824Z,3.20
2017-10-09T13:03:29.107Z,3.10
2017-10-09T13:05:58.453Z,3.50
2017-10-09T13:08:27.835Z,3.47
2017-10-09T13:10:57.452Z,3.40
2017-10-09T13:13:27.931Z,3.00
2017-10-09T13:15:57.247Z,3.30
2017-10-09T13:18:26.412Z,3.60
2017-10-09T13:20:55.566Z,4.03
2017-10-09T13:23:32.456Z,3.90
2017-10-09T13:26:01.782Z,3.40
2017-10-09T13:28:30.943Z,3.70
2017-10-09T13:31:00.292Z,3.20
2017-10-09T13:33:29.412Z,3.80
2017-10-09T13:36:13.225Z,3.37
2017-10-09T13:38:42.359Z,3.00
2017-10-09T13:41:12.411Z,3.87
2017-10-09T13:43:41.565Z,3.57
2017-10-09T13:46:10.724Z,3.37
2017-10-09T13:48:39.844Z,2.83
2017-10-09T13:51:08.930Z,3.23
2017-10-09T13:53:38.092Z,3.30
2017-10-09T13:56:14.360Z,3.23
2017-10-09T13:58:50.641Z,3.73
2017-10-09T14:01:19.785Z,3.70
2017-10-09T14:03:49.493Z,3.50
2017-10-09T14:06:18.626Z,3.37
2017-10-09T14:08:47.798Z,4.13
2017-10-09T14:11:16.899Z,4.20
2017-10-09T14:13:46.428Z,4.17
2017-10-09T14:16:28.522Z,4.07
2017-10-09T14:18:57.722Z,3.60
2017-10-09T14:21:26.857Z,4.30
2017-10-09T14:23:55.981Z,3.80
2017-10-09T14:26:32.104Z,3.60
2017-10-09T14:29:01.251Z,3.57
2017-10-09T14:41:33.444Z,3.80
2017-10-09T14:44:02.569Z,4.20
2017-10-09T14:46:31.923Z,3.77
2017-10-09T14:49:07.940Z,3.67
2017-10-09T14:51:37.082Z,3.90
2017-10-09T14:54:06.329Z,4.53
2017-10-09T14:56:35.920Z,3.77
2017-10-09T14:59:11.290Z,5.10
2017-10-09T15:01:42.518Z,4.77
2017-10-09T15:04:11.671Z,5.00
2017-10-09T15:06:40.788Z,5.00
2017-10-09T15:09:10.079Z,3.60
2017-10-09T15:11:39.236Z,4.17
2017-10-09T15:14:09.076Z,4.30
2017-10-09T15:16:39.281Z,3.93
2017-10-09T15:19:08.635Z,4.03
2017-10-09T15:21:38.155Z,3.67
2017-10-09T15:24:07.491Z,5.00
2017-10-09T15:26:36.609Z,3.97
2017-10-09T15:29:05.790Z,3.93
2017-10-09T15:31:34.972Z,4.83
2017-10-09T15:34:04.085Z,4.53
2017-10-09T15:36:33.226Z,4.80
2017-10-09T15:39:10.292Z,4.83
2017-10-09T15:41:59.163Z,4.53
2017-10-09T15:44:28.262Z,4.40
2017-10-09T15:46:57.638Z,5.47
2017-10-09T15:49:34.882Z,5.23
2017-10-09T15:52:10.232Z,4.30
2017-10-09T15:54:52.852Z,4.83
2017-10-09T15:57:28.110Z,5.80
2017-10-09T15:59:57.270Z,5.43
2017-10-09T16:02:26.370Z,4.00
2017-10-09T16:04:55.517Z,4.53
2017-10-09T16:07:24.617Z,4.63
2017-10-09T16:09:54.147Z,4.77
2017-10-09T16:12:23.296Z,5.30
2017-10-09T16:14:52.409Z,4.87
2017-10-09T16:17:21.721Z,4.80
2017-10-09T16:19:50.833Z,4.80
2017-10-09T16:22:19.947Z,5.93
2017-10-09T16:24:55.656Z,4.23
2017-10-09T16:27:24.753Z,5.07
2017-10-09T16:29:53.944Z,5.13
2017-10-09T16:32:30.667Z,4.93
2017-10-09T16:35:00.219Z,4.90
2017-10-09T16:37:29.585Z,4.30
2017-10-09T16:39:58.871Z,5.10
2017-10-09T16:42:28.265Z,6.20
2017-10-09T16:44:59.266Z,5.63
2017-10-09T16:47:28.391Z,4.77
2017-10-09T16:49:57.486Z,5.63
2017-10-09T16:52:26.566Z,5.27
2017-10-09T16:54:55.962Z,5.60
2017-10-09T16:57:25.057Z,4.53
2017-10-09T16:59:54.415Z,5.33
2017-10-09T17:02:37.056Z,5.80
2017-10-09T17:05:06.176Z,4.23
2017-10-09T17:07:35.268Z,5.23
2017-10-09T17:10:04.454Z,5.37
2017-10-09T17:12:46.753Z,5.60
2017-10-09T17:15:15.862Z,5.43
2017-10-09T17:17:51.295Z,5.33
2017-10-09T17:20:21.276Z,5.70
2017-10-09T17:22:52.167Z,4.93
2017-10-09T17:25:21.309Z,4.90
2017-10-09T17:27:50.397Z,4.93
2017-10-09T17:30:19.492Z,4.50
2017-10-09T17:32:48.838Z,5.53
2017-10-09T17:35:18.281Z,4.63
2017-10-09T17:37:47.490Z,4.73
2017-10-09T17:40:16.609Z,4.90
2017-10-09T17:42:45.750Z,4.83
2017-10-09T17:45:14.880Z,4.53
2017-10-09T17:47:56.434Z,5.50
2017-10-09T17:50:25.538Z,5.20
2017-10-09T17:52:55.732Z,5.17
2017-10-09T17:55:25.016Z,5.00
2017-10-09T17:57:54.457Z,5.90
2017-10-09T18:00:24.433Z,4.43
2017-10-09T18:02:53.813Z,5.10
2017-10-09T18:05:23.064Z,4.97
2017-10-09T18:07:52.178Z,4.70
2017-10-09T18:10:27.354Z,5.90
2017-10-09T18:12:56.718Z,6.53
2017-10-09T18:15:26.069Z,5.20
2017-10-09T18:17:55.382Z,5.30
2017-10-09T18:20:24.810Z,5.13
2017-10-09T18:23:01.746Z,4.60
2017-10-09T18:25:30.937Z,4.57
2017-10-09T18:28:06.052Z,6.17
2017-10-09T18:30:35.193Z,4.70
2017-10-09T18:33:04.937Z,5.03
2017-10-09T18:35:34.081Z,4.80
2017-10-09T18:38:03.293Z,5.57
2017-10-09T18:40:32.615Z,4.50
2017-10-09T18:43:05.266Z,5.33
2017-10-09T18:45:46.405Z,5.43
2017-10-09T18:48:15.562Z,5.90
2017-10-09T18:50:44.773Z,4.77
2017-10-09T18:53:14.234Z,5.63
2017-10-09T18:55:43.389Z,5.27
2017-10-09T18:58:13.054Z,4.90
2017-10-09T19:00:42.522Z,4.90
2017-10-09T19:03:11.706Z,5.40
2017-10-09T19:05:40.886Z,4.97
2017-10-09T19:08:10.091Z,6.97
2017-10-09T19:10:39.293Z,5.60
2017-10-09T19:13:14.771Z,5.33
2017-10-09T19:15:44.015Z,5.40
2017-10-09T19:18:13.433Z,4.97
2017-10-09T19:20:42.543Z,5.23
2017-10-09T19:23:11.694Z,4.83
2017-10-09T19:25:40.932Z,4.90
2017-10-09T19:28:16.358Z,5.10
2017-10-09T19:30:47.289Z,6.10
2017-10-09T19:33:16.633Z,5.20
2017-10-09T19:35:46.123Z,5.90
2017-10-09T19:38:29.418Z,5.00
2017-10-09T19:40:58.570Z,5.90
2017-10-09T19:43:40.502Z,5.27
2017-10-09T19:46:09.857Z,5.53
2017-10-09T19:48:39.741Z,5.60
2017-10-09T19:51:14.866Z,4.63
2017-10-09T19:53:57.398Z,5.03
2017-10-09T19:56:26.810Z,5.23
2017-10-09T19:58:56.825Z,4.87
2017-10-09T20:01:32.250Z,4.20
2017-10-09T20:04:08.955Z,5.67
2017-10-09T20:06:39.141Z,4.90
2017-10-09T20:09:08.427Z,4.73
2017-10-09T20:11:37.743Z,4.53
2017-10-09T20:14:07.126Z,5.20
2017-10-09T20:16:36.413Z,5.40
2017-10-09T20:19:09.526Z,4.50
2017-10-09T20:21:38.775Z,5.10
2017-10-09T20:24:07.995Z,4.50
2017-10-09T20:26:37.204Z,6.10
2017-10-09T20:29:06.362Z,4.90
2017-10-09T20:31:36.154Z,4.90
2017-10-09T20:34:11.430Z,4.80
2017-10-09T20:36:40.545Z,3.87
2017-10-09T20:39:09.746Z,4.80
2017-10-09T20:41:59.259Z,5.10
2017-10-09T20:44:28.409Z,4.40
2017-10-09T20:47:04.759Z,4.00
2017-10-09T20:49:34.184Z,4.43
2017-10-09T20:52:07.074Z,5.30
2017-10-09T20:54:36.358Z,4.20
2017-10-09T20:57:05.503Z,5.30
2017-10-09T20:59:35.078Z,4.83
2017-10-09T21:02:04.201Z,4.03
2017-10-09T21:04:33.327Z,4.30
2017-10-09T21:07:02.641Z,3.93
2017-10-09T21:09:31.923Z,4.53
2017-10-09T21:12:01.064Z,3.80
2017-10-09T21:14:36.535Z,3.87
2017-10-09T21:17:05.665Z,3.30
2017-10-09T21:19:37.959Z,3.93
2017-10-09T21:22:07.110Z,3.83
2017-10-09T21:24:37.535Z,4.87
2017-10-09T21:27:07.956Z,4.07
2017-10-09T21:29:37.232Z,4.17
2017-10-09T21:32:08.121Z,4.17
2017-10-09T21:34:37.482Z,4.40
2017-10-09T21:37:06.905Z,3.77
2017-10-09T21:39:44.479Z,3.47
2017-10-09T21:42:13.722Z,4.00
2017-10-09T21:44:49.644Z,3.43
2017-10-09T21:47:18.858Z,3.70
2017-10-09T21:49:48.007Z,3.47
2017-10-09T21:52:26.039Z,3.80
2017-10-09T21:54:55.288Z,3.57
2017-10-09T21:57:25.056Z,4.00
2017-10-09T21:59:54.208Z,3.47
2017-10-09T22:02:29.320Z,4.13
2017-10-09T22:05:07.326Z,4.40
2017-10-09T22:07:52.031Z,3.83
2017-10-09T22:10:29.049Z,4.00
2017-10-09T22:12:58.202Z,4.60
2017-10-09T22:15:27.317Z,4.17
2017-10-09T22:17:56.465Z,3.80
2017-10-09T22:20:25.821Z,4.30
2017-10-09T22:23:14.049Z,3.70
2017-10-09T22:25:50.194Z,4.10
2017-10-09T22:28:19.476Z,3.93
2017-10-09T22:30:48.694Z,4.80
2017-10-09T22:33:24.281Z,4.50
2017-10-09T22:35:53.445Z,3.63
2017-10-09T22:38:35.822Z,4.03
2017-10-09T22:41:04.943Z,4.20
2017-10-09T22:43:34.346Z,4.33
2017-10-09T22:46:03.626Z,4.37
2017-10-09T22:48:32.735Z,4.63
2017-10-09T22:51:01.824Z,3.53
2017-10-09T22:53:31.103Z,3.67
2017-10-09T22:56:00.196Z,4.70
2017-10-09T22:58:29.321Z,4.50
2017-10-09T23:00:58.463Z,4.40
2017-10-09T23:03:27.847Z,4.60
2017-10-09T23:05:56.971Z,4.13
2017-10-09T23:08:26.097Z,5.00
2017-10-09T23:11:08.701Z,3.80
2017-10-09T23:13:37.851Z,4.50
2017-10-09T23:16:14.287Z,4.30
2017-10-09T23:18:43.560Z,4.40
2017-10-09T23:21:15.127Z,4.10
2017-10-09T23:23:46.883Z,4.20
2017-10-09T23:26:16.101Z,4.27
2017-10-09T23:28:59.209Z,3.90
2017-10-09T23:31:41.409Z,4.23
2017-10-09T23:34:11.003Z,4.30
2017-10-09T23:36:40.104Z,4.33
2017-10-09T23:39:16.937Z,4.20
2017-10-09T23:41:58.214Z,4.80
2017-10-09T23:44:27.652Z,4.53
2017-10-09T23:46:56.761Z,4.60
2017-10-09T23:49:26.006Z,4.10
2017-10-09T23:51:55.504Z,4.73
2017-10-09T23:54:24.640Z,4.20
2017-10-09T23:56:53.718Z,4.70
2017-10-09T23:59:36.123Z,4.93
